createdAt,value
2023-02-27T00:00:00.673Z,1014.72
2023-02-27T00:01:00.638Z,1014.73
2023-02-27T00:02:00.602Z,1014.78
2023-02-27T00:03:00.632Z,1014.76
2023-02-27T00:04:00.580Z,1014.77
2023-02-27T00:05:00.596Z,1014.8
2023-02-27T00:06:00.444Z,1014.79
2023-02-27T00:07:00.414Z,1014.78
2023-02-27T00:08:00.367Z,1014.74
2023-02-27T00:09:00.429Z,1014.77
2023-02-27T00:10:00.292Z,1014.74
2023-02-27T00:11:00.254Z,1014.75
2023-02-27T00:12:00.222Z,1014.75
2023-02-27T00:13:00.177Z,1014.76
2023-02-27T00:14:00.136Z,1014.78
2023-02-27T00:15:00.116Z,1014.77
2023-02-27T00:16:00.150Z,1014.73
2023-02-27T00:17:00.024Z,1014.74
2023-02-27T00:17:59.985Z,1014.77
2023-02-27T00:18:59.946Z,1014.78
2023-02-27T00:19:59.907Z,1014.77
2023-02-27T00:20:59.869Z,1014.78
2023-02-27T00:21:59.829Z,1014.76
2023-02-27T00:22:59.796Z,1014.74
2023-02-27T00:23:59.753Z,1014.74
2023-02-27T00:24:59.741Z,1014.76
2023-02-27T00:25:59.678Z,1014.73
2023-02-27T00:26:59.642Z,1014.71
2023-02-27T00:27:59.601Z,1014.73
2023-02-27T00:28:59.560Z,1014.74
2023-02-27T00:29:59.521Z,1014.7
2023-02-27T00:30:59.651Z,1014.72
2023-02-27T00:31:59.523Z,1014.72
2023-02-27T00:32:59.404Z,1014.75
2023-02-27T00:33:59.367Z,1014.75
2023-02-27T00:34:59.332Z,1014.74
2023-02-27T00:35:59.308Z,1014.77
2023-02-27T00:36:59.250Z,1014.72
2023-02-27T00:37:59.213Z,1014.76
2023-02-27T00:38:59.176Z,1014.76
2023-02-27T00:39:59.147Z,1014.79
2023-02-27T00:40:59.119Z,1014.78
2023-02-27T00:41:59.059Z,1014.8
2023-02-27T00:42:59.020Z,1014.82
2023-02-27T00:43:58.981Z,1014.79
2023-02-27T00:44:58.946Z,1014.76
2023-02-27T00:45:58.905Z,1014.8
2023-02-27T00:46:58.868Z,1014.78
2023-02-27T00:47:58.827Z,1014.78
2023-02-27T00:48:58.788Z,1014.78
2023-02-27T00:49:58.749Z,1014.76
2023-02-27T00:50:58.713Z,1014.78
2023-02-27T00:51:58.677Z,1014.77
2023-02-27T00:52:58.639Z,1014.76
2023-02-27T00:53:58.596Z,1014.72
2023-02-27T00:54:58.554Z,1014.72
2023-02-27T00:55:58.537Z,1014.72
2023-02-27T00:56:58.505Z,1014.73
2023-02-27T00:57:58.458Z,1014.77
2023-02-27T00:58:58.407Z,1014.73
2023-02-27T00:59:58.363Z,1014.76
2023-02-27T01:00:58.367Z,1014.74
2023-02-27T01:01:58.292Z,1014.72
2023-02-27T01:02:58.266Z,1014.72
2023-02-27T01:03:58.211Z,1014.73
2023-02-27T01:04:58.178Z,1014.78
2023-02-27T01:05:58.136Z,1014.74
2023-02-27T01:06:58.097Z,1014.74
2023-02-27T01:07:58.061Z,1014.74
2023-02-27T01:08:58.019Z,1014.74
2023-02-27T01:09:57.982Z,1014.72
2023-02-27T01:10:57.943Z,1014.74
2023-02-27T01:11:57.905Z,1014.75
2023-02-27T01:12:57.900Z,1014.77
2023-02-27T01:13:57.831Z,1014.8
2023-02-27T01:14:57.800Z,1014.75
2023-02-27T01:15:57.752Z,1014.75
2023-02-27T01:16:57.716Z,1014.76
2023-02-27T01:17:57.673Z,1014.76
2023-02-27T01:18:57.637Z,1014.74
2023-02-27T01:19:57.597Z,1014.7
2023-02-27T01:20:57.559Z,1014.69
2023-02-27T01:21:57.519Z,1014.76
2023-02-27T01:22:57.483Z,1014.7
2023-02-27T01:23:57.443Z,1014.73
2023-02-27T01:24:57.407Z,1014.74
2023-02-27T01:25:57.367Z,1014.74
2023-02-27T01:26:57.329Z,1014.78
2023-02-27T01:27:57.290Z,1014.73
2023-02-27T01:28:57.277Z,1014.68
2023-02-27T01:29:57.212Z,1014.72
2023-02-27T01:30:57.200Z,1014.7
2023-02-27T01:31:57.222Z,1014.67
2023-02-27T01:32:57.099Z,1014.7
2023-02-27T01:33:57.056Z,1014.68
2023-02-27T01:34:57.020Z,1014.73
2023-02-27T01:35:56.985Z,1014.65
2023-02-27T01:36:56.943Z,1014.67
2023-02-27T01:37:56.902Z,1014.69
2023-02-27T01:38:56.867Z,1014.64
2023-02-27T01:39:56.827Z,1014.67
2023-02-27T01:40:56.788Z,1014.71
2023-02-27T01:41:56.746Z,1014.67
2023-02-27T01:42:56.708Z,1014.68
2023-02-27T01:43:56.667Z,1014.7
2023-02-27T01:44:56.655Z,1014.74
2023-02-27T01:45:56.660Z,1014.67
2023-02-27T01:46:56.575Z,1014.73
2023-02-27T01:47:56.515Z,1014.73
2023-02-27T01:48:56.475Z,1014.73
2023-02-27T01:49:56.438Z,1014.71
2023-02-27T01:50:56.400Z,1014.74
2023-02-27T01:51:56.363Z,1014.74
2023-02-27T01:52:56.322Z,1014.75
2023-02-27T01:53:56.294Z,1014.74
2023-02-27T01:54:56.243Z,1014.75
2023-02-27T01:55:56.201Z,1014.68
2023-02-27T01:56:56.165Z,1014.68
2023-02-27T01:57:56.126Z,1014.64
2023-02-27T01:58:56.091Z,1014.71
2023-02-27T01:59:56.046Z,1014.68
2023-02-27T02:00:56.086Z,1014.71
2023-02-27T02:01:55.988Z,1014.67
2023-02-27T02:02:55.934Z,1014.7
2023-02-27T02:03:55.891Z,1014.66
2023-02-27T02:04:55.855Z,1014.7
2023-02-27T02:05:55.814Z,1014.69
2023-02-27T02:06:55.777Z,1014.69
2023-02-27T02:07:55.736Z,1014.71
2023-02-27T02:08:55.698Z,1014.69
2023-02-27T02:09:55.661Z,1014.7
2023-02-27T02:10:55.624Z,1014.71
2023-02-27T02:11:55.582Z,1014.68
2023-02-27T02:12:55.545Z,1014.71
2023-02-27T02:13:55.508Z,1014.69
2023-02-27T02:14:55.462Z,1014.68
2023-02-27T02:15:55.425Z,1014.69
2023-02-27T02:16:55.446Z,1014.62
2023-02-27T02:17:55.349Z,1014.63
2023-02-27T02:18:55.305Z,1014.64
2023-02-27T02:19:55.311Z,1014.63
2023-02-27T02:20:55.230Z,1014.65
2023-02-27T02:21:55.191Z,1014.65
2023-02-27T02:22:55.152Z,1014.63
2023-02-27T02:23:55.114Z,1014.66
2023-02-27T02:24:55.073Z,1014.64
2023-02-27T02:25:55.034Z,1014.64
2023-02-27T02:26:54.997Z,1014.65
2023-02-27T02:27:54.962Z,1014.61
2023-02-27T02:28:54.917Z,1014.61
2023-02-27T02:29:54.884Z,1014.63
2023-02-27T02:30:54.947Z,1014.68
2023-02-27T02:31:54.952Z,1014.68
2023-02-27T02:32:54.799Z,1014.7
2023-02-27T02:33:54.724Z,1014.66
2023-02-27T02:34:54.683Z,1014.65
2023-02-27T02:35:54.648Z,1014.71
2023-02-27T02:36:54.605Z,1014.68
2023-02-27T02:37:54.570Z,1014.72
2023-02-27T02:38:54.528Z,1014.7
2023-02-27T02:39:54.490Z,1014.75
2023-02-27T02:40:54.449Z,1014.73
2023-02-27T02:41:54.413Z,1014.76
2023-02-27T02:42:54.372Z,1014.77
2023-02-27T02:43:54.335Z,1014.79
2023-02-27T02:44:54.293Z,1014.81
2023-02-27T02:45:54.256Z,1014.86
2023-02-27T02:46:54.215Z,1014.81
2023-02-27T02:47:54.180Z,1014.85
2023-02-27T02:48:54.170Z,1014.84
2023-02-27T02:49:54.102Z,1014.86
2023-02-27T02:50:54.059Z,1014.87
2023-02-27T02:51:54.022Z,1014.9
2023-02-27T02:52:53.985Z,1014.92
2023-02-27T02:53:53.946Z,1014.92
2023-02-27T02:54:53.904Z,1014.95
2023-02-27T02:55:53.868Z,1014.93
2023-02-27T02:56:53.830Z,1014.92
2023-02-27T02:57:53.789Z,1014.94
2023-02-27T02:58:53.748Z,1014.93
2023-02-27T02:59:53.714Z,1014.88
2023-02-27T03:00:53.674Z,1014.91
2023-02-27T03:01:53.654Z,1014.92
2023-02-27T03:02:53.596Z,1014.89
2023-02-27T03:03:53.552Z,1014.9
2023-02-27T03:04:53.540Z,1014.86
2023-02-27T03:05:53.477Z,1014.9
2023-02-27T03:06:53.438Z,1014.85
2023-02-27T03:07:53.444Z,1014.85
2023-02-27T03:08:53.361Z,1014.82
2023-02-27T03:09:53.319Z,1014.82
2023-02-27T03:10:53.284Z,1014.81
2023-02-27T03:11:53.246Z,1014.78
2023-02-27T03:12:53.203Z,1014.84
2023-02-27T03:13:53.162Z,1014.84
2023-02-27T03:14:53.126Z,1014.84
2023-02-27T03:15:53.113Z,1014.84
2023-02-27T03:16:53.047Z,1014.85
2023-02-27T03:17:53.010Z,1014.87
2023-02-27T03:18:52.973Z,1014.85
2023-02-27T03:19:52.931Z,1014.9
2023-02-27T03:20:52.914Z,1014.88
2023-02-27T03:21:52.850Z,1014.89
2023-02-27T03:22:52.811Z,1014.9
2023-02-27T03:23:52.775Z,1014.92
2023-02-27T03:24:52.730Z,1014.89
2023-02-27T03:25:52.694Z,1014.89
2023-02-27T03:26:52.655Z,1014.92
2023-02-27T03:27:52.620Z,1014.91
2023-02-27T03:28:52.571Z,1014.87
2023-02-27T03:29:52.538Z,1014.88
2023-02-27T03:30:52.589Z,1014.85
2023-02-27T03:31:52.551Z,1014.81
2023-02-27T03:32:52.414Z,1014.84
2023-02-27T03:33:52.374Z,1014.83
2023-02-27T03:34:52.340Z,1014.87
2023-02-27T03:35:52.296Z,1014.83
2023-02-27T03:36:52.285Z,1014.85
2023-02-27T03:37:52.217Z,1014.84
2023-02-27T03:38:52.177Z,1014.85
2023-02-27T03:39:52.141Z,1014.79
2023-02-27T03:40:52.101Z,1014.82
2023-02-27T03:41:52.059Z,1014.82
2023-02-27T03:42:52.021Z,1014.82
2023-02-27T03:43:51.982Z,1014.83
2023-02-27T03:44:52.484Z,1014.82
2023-02-27T03:45:51.904Z,1014.79
2023-02-27T03:46:51.864Z,1014.76
2023-02-27T03:47:51.825Z,1014.75
2023-02-27T03:48:51.785Z,1014.78
2023-02-27T03:49:51.745Z,1014.77
2023-02-27T03:50:51.707Z,1014.75
2023-02-27T03:51:51.668Z,1014.77
2023-02-27T03:52:51.656Z,1014.81
2023-02-27T03:53:51.596Z,1014.79
2023-02-27T03:54:51.549Z,1014.83
2023-02-27T03:55:51.512Z,1014.81
2023-02-27T03:56:51.472Z,1014.78
2023-02-27T03:57:51.434Z,1014.81
2023-02-27T03:58:51.393Z,1014.8
2023-02-27T03:59:51.355Z,1014.81
2023-02-27T04:00:51.314Z,1014.83
2023-02-27T04:01:51.337Z,1014.82
2023-02-27T04:02:51.311Z,1014.84
2023-02-27T04:03:51.201Z,1014.82
2023-02-27T04:04:51.159Z,1014.8
2023-02-27T04:05:51.145Z,1014.82
2023-02-27T04:06:51.080Z,1014.85
2023-02-27T04:07:51.043Z,1014.85
2023-02-27T04:08:51.023Z,1014.87
2023-02-27T04:09:50.963Z,1014.88
2023-02-27T04:10:50.922Z,1014.89
2023-02-27T04:11:50.886Z,1014.9
2023-02-27T04:12:50.843Z,1014.86
2023-02-27T04:13:50.813Z,1014.91
2023-02-27T04:14:50.764Z,1014.95
2023-02-27T04:15:50.753Z,1014.92
2023-02-27T04:16:50.689Z,1014.94
2023-02-27T04:17:50.650Z,1014.98
2023-02-27T04:18:50.608Z,1014.98
2023-02-27T04:19:50.569Z,1015.03
2023-02-27T04:20:50.529Z,1015.05
2023-02-27T04:21:50.504Z,1015.07
2023-02-27T04:22:50.450Z,1015.06
2023-02-27T04:23:50.416Z,1015.04
2023-02-27T04:24:50.401Z,1015.08
2023-02-27T04:25:50.334Z,1015.06
2023-02-27T04:26:50.295Z,1015.09
2023-02-27T04:27:50.257Z,1015.1
2023-02-27T04:28:50.218Z,1015.1
2023-02-27T04:29:50.179Z,1015.08
2023-02-27T04:30:50.171Z,1015.1
2023-02-27T04:31:50.240Z,1015.07
2023-02-27T04:32:50.083Z,1015.11
2023-02-27T04:33:50.025Z,1015.09
2023-02-27T04:34:49.984Z,1015.11
2023-02-27T04:35:49.949Z,1015.09
2023-02-27T04:36:49.906Z,1015.11
2023-02-27T04:37:49.868Z,1015.1
2023-02-27T04:38:49.830Z,1015.09
2023-02-27T04:39:49.790Z,1015.13
2023-02-27T04:40:49.777Z,1015.15
2023-02-27T04:41:49.711Z,1015.14
2023-02-27T04:42:49.672Z,1015.18
2023-02-27T04:43:49.632Z,1015.21
2023-02-27T04:44:49.599Z,1015.19
2023-02-27T04:45:49.579Z,1015.22
2023-02-27T04:46:49.516Z,1015.19
2023-02-27T04:47:49.477Z,1015.26
2023-02-27T04:48:49.449Z,1015.26
2023-02-27T04:49:49.399Z,1015.23
2023-02-27T04:50:49.361Z,1015.23
2023-02-27T04:51:49.319Z,1015.27
2023-02-27T04:52:49.285Z,1015.26
2023-02-27T04:53:49.246Z,1015.25
2023-02-27T04:54:49.202Z,1015.29
2023-02-27T04:55:49.160Z,1015.3
2023-02-27T04:56:49.151Z,1015.34
2023-02-27T04:57:49.086Z,1015.36
2023-02-27T04:58:49.044Z,1015.37
2023-02-27T04:59:49.004Z,1015.37
2023-02-27T05:00:48.966Z,1015.35
2023-02-27T05:01:49.003Z,1015.36
2023-02-27T05:02:48.919Z,1015.38
2023-02-27T05:03:48.845Z,1015.36
2023-02-27T05:04:48.806Z,1015.34
2023-02-27T05:05:48.769Z,1015.36
2023-02-27T05:06:48.735Z,1015.31
2023-02-27T05:07:48.686Z,1015.32
2023-02-27T05:08:48.650Z,1015.34
2023-02-27T05:09:48.606Z,1015.38
2023-02-27T05:10:48.570Z,1015.36
2023-02-27T05:11:48.528Z,1015.32
2023-02-27T05:12:48.517Z,1015.3
2023-02-27T05:13:48.447Z,1015.36
2023-02-27T05:14:48.414Z,1015.37
2023-02-27T05:15:48.389Z,1015.37
2023-02-27T05:16:48.386Z,1015.34
2023-02-27T05:17:48.334Z,1015.42
2023-02-27T05:18:48.255Z,1015.37
2023-02-27T05:19:48.211Z,1015.42
2023-02-27T05:20:48.172Z,1015.47
2023-02-27T05:21:48.132Z,1015.44
2023-02-27T05:22:48.095Z,1015.48
2023-02-27T05:23:48.104Z,1015.49
2023-02-27T05:24:48.019Z,1015.47
2023-02-27T05:25:47.974Z,1015.5
2023-02-27T05:26:47.942Z,1015.48
2023-02-27T05:27:47.894Z,1015.48
2023-02-27T05:28:47.881Z,1015.47
2023-02-27T05:29:47.814Z,1015.46
2023-02-27T05:30:47.776Z,1015.46
2023-02-27T05:31:47.821Z,1015.45
2023-02-27T05:32:47.703Z,1015.43
2023-02-27T05:33:47.659Z,1015.45
2023-02-27T05:34:47.618Z,1015.46
2023-02-27T05:35:47.633Z,1015.47
2023-02-27T05:36:47.539Z,1015.48
2023-02-27T05:37:47.498Z,1015.48
2023-02-27T05:38:47.455Z,1015.53
2023-02-27T05:39:47.433Z,1015.5
2023-02-27T05:40:47.375Z,1015.52
2023-02-27T05:41:47.345Z,1015.52
2023-02-27T05:42:47.297Z,1015.51
2023-02-27T05:43:47.260Z,1015.51
2023-02-27T05:44:47.272Z,1015.53
2023-02-27T05:45:47.213Z,1015.51
2023-02-27T05:46:47.136Z,1015.5
2023-02-27T05:47:47.100Z,1015.48
2023-02-27T05:48:47.057Z,1015.55
2023-02-27T05:49:47.020Z,1015.55
2023-02-27T05:50:46.980Z,1015.55
2023-02-27T05:51:46.940Z,1015.55
2023-02-27T05:52:46.898Z,1015.56
2023-02-27T05:53:46.861Z,1015.54
2023-02-27T05:54:46.820Z,1015.53
2023-02-27T05:55:46.783Z,1015.56
2023-02-27T05:56:46.743Z,1015.59
2023-02-27T05:57:46.702Z,1015.6
2023-02-27T05:58:46.663Z,1015.64
2023-02-27T05:59:46.627Z,1015.65
2023-02-27T06:00:46.611Z,1015.67
2023-02-27T06:01:46.698Z,1015.65
2023-02-27T06:02:46.507Z,1015.72
2023-02-27T06:03:46.483Z,1015.75
2023-02-27T06:04:46.426Z,1015.76
2023-02-27T06:05:46.389Z,1015.78
2023-02-27T06:06:46.350Z,1015.78
2023-02-27T06:07:46.320Z,1015.79
2023-02-27T06:08:46.286Z,1015.81
2023-02-27T06:09:46.231Z,1015.85
2023-02-27T06:10:46.190Z,1015.85
2023-02-27T06:11:46.151Z,1015.86
2023-02-27T06:12:46.112Z,1015.83
2023-02-27T06:13:46.072Z,1015.9
2023-02-27T06:14:46.035Z,1015.87
2023-02-27T06:15:45.994Z,1015.94
2023-02-27T06:16:46.025Z,1015.94
2023-02-27T06:17:45.934Z,1015.94
2023-02-27T06:18:45.876Z,1015.98
2023-02-27T06:19:45.835Z,1016.04
2023-02-27T06:20:45.796Z,1015.99
2023-02-27T06:21:45.756Z,1016.02
2023-02-27T06:22:45.718Z,1016.03
2023-02-27T06:23:45.675Z,1016.04
2023-02-27T06:24:45.637Z,1016.08
2023-02-27T06:25:45.595Z,1016.06
2023-02-27T06:26:45.556Z,1016.03
2023-02-27T06:27:45.514Z,1016.07
2023-02-27T06:28:45.483Z,1016.06
2023-02-27T06:29:45.434Z,1016.06
2023-02-27T06:30:46.477Z,1016.07
2023-02-27T06:31:45.443Z,1016.08
2023-02-27T06:32:45.347Z,1016.09
2023-02-27T06:33:45.281Z,1016.1
2023-02-27T06:34:45.235Z,1016.13
2023-02-27T06:35:45.309Z,1016.13
2023-02-27T06:36:45.158Z,1016.1
2023-02-27T06:37:45.114Z,1016.1
2023-02-27T06:38:45.077Z,1016.1
2023-02-27T06:39:45.037Z,1016.11
2023-02-27T06:40:44.995Z,1016.12
2023-02-27T06:41:44.955Z,1016.17
2023-02-27T06:42:44.918Z,1016.17
2023-02-27T06:43:44.879Z,1016.15
2023-02-27T06:44:44.840Z,1016.21
2023-02-27T06:45:44.815Z,1016.2
2023-02-27T06:46:44.760Z,1016.18
2023-02-27T06:47:44.719Z,1016.17
2023-02-27T06:48:44.703Z,1016.17
2023-02-27T06:49:44.642Z,1016.2
2023-02-27T06:50:44.601Z,1016.16
2023-02-27T06:51:45.133Z,1016.19
2023-02-27T06:52:44.521Z,1016.19
2023-02-27T06:53:44.481Z,1016.2
2023-02-27T06:54:44.443Z,1016.2
2023-02-27T06:55:44.401Z,1016.22
2023-02-27T06:56:44.394Z,1016.25
2023-02-27T06:57:44.340Z,1016.27
2023-02-27T06:58:44.314Z,1016.27
2023-02-27T06:59:44.243Z,1016.29
2023-02-27T07:00:44.210Z,1016.3
2023-02-27T07:01:44.208Z,1016.28
2023-02-27T07:02:44.127Z,1016.3
2023-02-27T07:03:44.088Z,1016.29
2023-02-27T07:04:44.108Z,1016.36
2023-02-27T07:05:44.088Z,1016.38
2023-02-27T07:07:32.192Z,1016.4
2023-02-27T07:07:46.578Z,1016.4
2023-02-27T07:08:54.493Z,1016.4
2023-02-27T07:09:46.462Z,1016.41
2023-02-27T07:10:46.430Z,1016.4
2023-02-27T07:11:46.386Z,1016.42
2023-02-27T07:12:46.349Z,1016.45
2023-02-27T07:13:46.309Z,1016.42
2023-02-27T07:14:46.270Z,1016.43
2023-02-27T07:15:46.291Z,1016.49
2023-02-27T07:16:46.193Z,1016.48
2023-02-27T07:17:46.199Z,1016.51
2023-02-27T07:18:46.179Z,1016.56
2023-02-27T07:19:46.109Z,1016.51
2023-02-27T07:20:46.034Z,1016.53
2023-02-27T07:21:45.996Z,1016.57
2023-02-27T07:22:45.956Z,1016.52
2023-02-27T07:23:45.922Z,1016.55
2023-02-27T07:24:45.884Z,1016.55
2023-02-27T07:25:45.845Z,1016.59
2023-02-27T07:26:45.801Z,1016.61
2023-02-27T07:27:45.762Z,1016.63
2023-02-27T07:28:45.730Z,1016.63
2023-02-27T07:29:45.687Z,1016.59
2023-02-27T07:30:45.703Z,1016.63
2023-02-27T07:31:45.655Z,1016.66
2023-02-27T07:32:45.570Z,1016.64
2023-02-27T07:33:45.532Z,1016.65
2023-02-27T07:34:45.495Z,1016.64
2023-02-27T07:35:45.550Z,1016.65
2023-02-27T07:36:45.415Z,1016.66
2023-02-27T07:37:45.378Z,1016.68
2023-02-27T07:38:45.336Z,1016.64
2023-02-27T07:39:45.298Z,1016.68
2023-02-27T07:40:45.259Z,1016.65
2023-02-27T07:41:45.228Z,1016.68
2023-02-27T07:42:45.266Z,1016.69
2023-02-27T07:43:45.150Z,1016.67
2023-02-27T07:44:45.148Z,1016.66
2023-02-27T07:45:45.069Z,1016.65
2023-02-27T07:46:45.084Z,1016.61
2023-02-27T07:47:44.994Z,1016.6
2023-02-27T07:48:44.952Z,1016.58
2023-02-27T07:49:44.926Z,1016.61
2023-02-27T07:50:44.875Z,1016.63
2023-02-27T07:51:44.864Z,1016.63
2023-02-27T07:52:44.815Z,1016.63
2023-02-27T07:53:44.764Z,1016.66
2023-02-27T07:54:44.746Z,1016.63
2023-02-27T07:55:44.687Z,1016.69
2023-02-27T07:56:44.646Z,1016.66
2023-02-27T07:57:44.615Z,1016.68
2023-02-27T07:58:44.569Z,1016.64
2023-02-27T07:59:44.536Z,1016.67
2023-02-27T08:00:44.498Z,1016.68
2023-02-27T08:01:44.458Z,1016.66
2023-02-27T08:02:44.430Z,1016.66
2023-02-27T08:03:44.382Z,1016.65
2023-02-27T08:04:44.514Z,1016.69
2023-02-27T08:05:44.415Z,1016.68
2023-02-27T08:06:44.263Z,1016.7
2023-02-27T08:07:44.258Z,1016.72
2023-02-27T08:08:44.252Z,1016.71
2023-02-27T08:09:44.166Z,1016.74
2023-02-27T08:10:44.115Z,1016.73
2023-02-27T08:11:44.177Z,1016.72
2023-02-27T08:12:44.039Z,1016.77
2023-02-27T08:14:01.166Z,1016.74
2023-02-27T08:14:43.960Z,1016.76
2023-02-27T08:15:43.920Z,1016.7
2023-02-27T08:16:43.885Z,1016.74
2023-02-27T08:17:43.844Z,1016.75
2023-02-27T08:18:43.807Z,1016.76
2023-02-27T08:19:43.766Z,1016.74
2023-02-27T08:20:43.736Z,1016.76
2023-02-27T08:21:43.691Z,1016.73
2023-02-27T08:22:43.659Z,1016.76
2023-02-27T08:23:43.640Z,1016.77
2023-02-27T08:24:43.583Z,1016.76
2023-02-27T08:25:43.541Z,1016.74
2023-02-27T08:26:43.502Z,1016.74
2023-02-27T08:27:43.467Z,1016.78
2023-02-27T08:28:43.432Z,1016.77
2023-02-27T08:29:43.432Z,1016.81
2023-02-27T08:30:43.354Z,1016.81
2023-02-27T08:31:43.492Z,1016.8
2023-02-27T08:32:43.280Z,1016.82
2023-02-27T08:33:43.243Z,1016.83
2023-02-27T08:34:43.223Z,1016.83
2023-02-27T08:35:43.206Z,1016.79
2023-02-27T08:36:43.125Z,1016.81
2023-02-27T08:37:43.082Z,1016.83
2023-02-27T08:38:43.061Z,1016.84
2023-02-27T08:39:43.042Z,1016.89
2023-02-27T08:40:42.972Z,1016.9
2023-02-27T08:41:42.931Z,1016.9
2023-02-27T08:42:42.897Z,1016.88
2023-02-27T08:43:42.865Z,1016.91
2023-02-27T08:44:42.825Z,1016.94
2023-02-27T08:45:42.991Z,1016.9
2023-02-27T08:46:42.746Z,1016.92
2023-02-27T08:47:42.706Z,1016.93
2023-02-27T08:48:42.677Z,1016.94
2023-02-27T08:49:42.632Z,1016.97
2023-02-27T08:50:42.595Z,1016.88
2023-02-27T08:51:42.555Z,1016.89
2023-02-27T08:52:42.521Z,1016.89
2023-02-27T08:53:42.492Z,1016.91
2023-02-27T08:54:42.444Z,1016.88
2023-02-27T08:55:42.483Z,1016.93
2023-02-27T08:56:42.369Z,1016.9
2023-02-27T08:57:42.465Z,1016.93
2023-02-27T08:58:42.299Z,1016.89
2023-02-27T08:59:42.380Z,1016.95
2023-02-27T09:00:43.746Z,1016.89
2023-02-27T09:01:42.297Z,1016.94
2023-02-27T09:02:42.319Z,1016.91
2023-02-27T09:03:42.218Z,1016.91
2023-02-27T09:04:42.210Z,1016.91
2023-02-27T09:05:42.130Z,1016.95
2023-02-27T09:06:42.018Z,1016.97
2023-02-27T09:07:41.966Z,1016.99
2023-02-27T09:08:41.925Z,1016.9
2023-02-27T09:09:41.888Z,1016.89
2023-02-27T09:10:41.859Z,1016.9
2023-02-27T09:11:41.876Z,1016.89
2023-02-27T09:12:41.777Z,1016.87
2023-02-27T09:13:41.744Z,1016.82
2023-02-27T09:14:41.702Z,1016.84
2023-02-27T09:15:41.669Z,1016.82
2023-02-27T09:16:41.687Z,1016.79
2023-02-27T09:17:41.594Z,1016.83
2023-02-27T09:18:41.555Z,1016.83
2023-02-27T09:19:41.520Z,1016.84
2023-02-27T09:20:41.492Z,1016.87
2023-02-27T09:21:41.446Z,1016.88
2023-02-27T09:22:41.408Z,1016.83
2023-02-27T09:23:41.375Z,1016.83
2023-02-27T09:24:41.334Z,1016.82
2023-02-27T09:25:41.300Z,1016.79
2023-02-27T09:26:46.036Z,1016.79
2023-02-27T09:27:41.253Z,1016.79
2023-02-27T09:28:41.201Z,1016.81
2023-02-27T09:29:41.153Z,1016.82
2023-02-27T09:30:41.115Z,1016.82
2023-02-27T09:31:41.148Z,1016.81
2023-02-27T09:32:41.255Z,1016.8
2023-02-27T09:33:41.007Z,1016.83
2023-02-27T09:34:40.972Z,1016.79
2023-02-27T09:35:40.945Z,1016.79
2023-02-27T09:36:40.895Z,1016.77
2023-02-27T09:37:40.866Z,1016.74
2023-02-27T09:38:41.440Z,1016.76
2023-02-27T09:39:40.790Z,1016.76
2023-02-27T09:40:40.756Z,1016.77
2023-02-27T09:41:40.716Z,1016.75
2023-02-27T09:42:40.678Z,1016.78
2023-02-27T09:43:40.680Z,1016.78
2023-02-27T09:44:46.525Z,1016.74
2023-02-27T09:45:40.612Z,1016.74
2023-02-27T09:46:40.533Z,1016.77
2023-02-27T09:47:40.499Z,1016.77
2023-02-27T09:48:40.480Z,1016.79
2023-02-27T09:49:40.429Z,1016.79
2023-02-27T09:50:40.455Z,1016.78
2023-02-27T09:51:40.351Z,1016.78
2023-02-27T09:52:40.317Z,1016.8
2023-02-27T09:53:40.277Z,1016.82
2023-02-27T09:54:40.245Z,1016.79
2023-02-27T09:55:40.225Z,1016.81
2023-02-27T09:56:40.175Z,1016.79
2023-02-27T09:57:40.137Z,1016.74
2023-02-27T09:58:40.102Z,1016.78
2023-02-27T09:59:40.104Z,1016.77
2023-02-27T10:00:40.052Z,1016.79
2023-02-27T10:01:39.990Z,1016.78
2023-02-27T10:02:40.020Z,1016.79
2023-02-27T10:03:40.042Z,1016.74
2023-02-27T10:04:39.894Z,1016.73
2023-02-27T10:05:39.848Z,1016.81
2023-02-27T10:06:39.814Z,1016.76
2023-02-27T10:07:39.780Z,1016.81
2023-02-27T10:08:39.742Z,1016.79
2023-02-27T10:09:39.706Z,1016.78
2023-02-27T10:10:39.674Z,1016.79
2023-02-27T10:11:39.645Z,1016.81
2023-02-27T10:12:39.601Z,1016.81
2023-02-27T10:13:39.572Z,1016.77
2023-02-27T10:14:39.541Z,1016.86
2023-02-27T10:15:39.521Z,1016.82
2023-02-27T10:16:39.537Z,1016.87
2023-02-27T10:17:39.424Z,1016.83
2023-02-27T10:18:39.421Z,1016.77
2023-02-27T10:19:39.354Z,1016.88
2023-02-27T10:20:39.323Z,1016.84
2023-02-27T10:21:39.287Z,1016.83
2023-02-27T10:22:39.254Z,1016.85
2023-02-27T10:23:39.214Z,1016.74
2023-02-27T10:24:39.177Z,1016.78
2023-02-27T10:25:39.143Z,1016.79
2023-02-27T10:26:39.113Z,1016.79
2023-02-27T10:27:39.072Z,1016.84
2023-02-27T10:28:39.042Z,1016.87
2023-02-27T10:29:39.007Z,1016.87
2023-02-27T10:30:39.052Z,1016.87
2023-02-27T10:31:38.986Z,1016.85
2023-02-27T10:32:38.898Z,1016.86
2023-02-27T10:33:38.865Z,1016.83
2023-02-27T10:34:38.832Z,1016.87
2023-02-27T10:35:38.824Z,1016.89
2023-02-27T10:36:38.896Z,1016.93
2023-02-27T10:37:38.734Z,1016.88
2023-02-27T10:38:38.694Z,1016.92
2023-02-27T10:39:38.661Z,1016.88
2023-02-27T10:40:38.625Z,1016.89
2023-02-27T10:41:39.898Z,1016.91
2023-02-27T10:42:40.681Z,1016.88
2023-02-27T10:43:38.522Z,1016.87
2023-02-27T10:44:38.487Z,1016.91
2023-02-27T10:45:39.018Z,1016.85
2023-02-27T10:46:38.528Z,1016.83
2023-02-27T10:47:38.524Z,1016.73
2023-02-27T10:48:38.347Z,1016.81
2023-02-27T10:49:38.318Z,1016.77
2023-02-27T10:50:38.292Z,1016.83
2023-02-27T10:51:38.686Z,1016.81
2023-02-27T10:52:38.216Z,1016.8
2023-02-27T10:53:38.182Z,1016.73
2023-02-27T10:54:38.144Z,1016.77
2023-02-27T10:55:38.113Z,1016.76
2023-02-27T10:56:38.079Z,1016.73
2023-02-27T10:57:38.047Z,1016.73
2023-02-27T10:58:38.021Z,1016.73
2023-02-27T10:59:38.091Z,1016.73
2023-02-27T11:00:37.949Z,1016.74
2023-02-27T11:01:37.932Z,1016.72
2023-02-27T11:02:37.885Z,1016.71
2023-02-27T11:03:40.597Z,1016.68
2023-02-27T11:04:37.910Z,1016.69
2023-02-27T11:05:37.784Z,1016.63
2023-02-27T11:06:37.750Z,1016.62
2023-02-27T11:07:37.730Z,1016.65
2023-02-27T11:08:37.685Z,1016.71
2023-02-27T11:09:37.654Z,1016.6
2023-02-27T11:10:37.618Z,1016.62
2023-02-27T11:11:37.586Z,1016.72
2023-02-27T11:12:37.557Z,1016.6
2023-02-27T11:13:37.521Z,1016.56
2023-02-27T11:14:37.486Z,1016.51
2023-02-27T11:15:37.524Z,1016.49
2023-02-27T11:16:37.420Z,1016.5
2023-02-27T11:17:37.395Z,1016.5
2023-02-27T11:18:37.353Z,1016.49
2023-02-27T11:19:37.349Z,1016.47
2023-02-27T11:20:37.292Z,1016.47
2023-02-27T11:21:37.256Z,1016.44
2023-02-27T11:22:37.221Z,1016.41
2023-02-27T11:23:37.191Z,1016.42
2023-02-27T11:24:37.156Z,1016.35
2023-02-27T11:25:37.132Z,1016.38
2023-02-27T11:26:37.107Z,1016.41
2023-02-27T11:27:37.059Z,1016.4
2023-02-27T11:28:37.028Z,1016.38
2023-02-27T11:29:36.994Z,1016.34
2023-02-27T11:30:36.959Z,1016.33
2023-02-27T11:31:36.985Z,1016.31
2023-02-27T11:32:36.893Z,1016.31
2023-02-27T11:33:36.859Z,1016.23
2023-02-27T11:34:36.830Z,1016.29
2023-02-27T11:35:36.909Z,1016.3
2023-02-27T11:36:36.761Z,1016.35
2023-02-27T11:37:36.751Z,1016.38
2023-02-27T11:38:36.714Z,1016.38
2023-02-27T11:39:36.661Z,1016.37
2023-02-27T11:40:36.635Z,1016.3
2023-02-27T11:41:36.595Z,1016.37
2023-02-27T11:42:36.563Z,1016.38
2023-02-27T11:43:36.539Z,1016.43
2023-02-27T11:44:38.855Z,1016.42
2023-02-27T11:46:05.544Z,1016.37
2023-02-27T11:46:54.925Z,1016.35
2023-02-27T11:47:56.983Z,1016.36
2023-02-27T11:48:54.819Z,1016.34
2023-02-27T11:49:54.788Z,1016.36
2023-02-27T11:50:54.798Z,1016.35
2023-02-27T11:51:54.724Z,1016.38
2023-02-27T11:52:54.686Z,1016.39
2023-02-27T11:53:54.660Z,1016.36
2023-02-27T11:54:54.713Z,1016.33
2023-02-27T11:55:54.585Z,1016.38
2023-02-27T11:56:54.554Z,1016.36
2023-02-27T11:57:54.533Z,1016.33
2023-02-27T11:58:54.485Z,1016.31
2023-02-27T11:59:54.454Z,1016.28
2023-02-27T12:00:54.425Z,1016.35
2023-02-27T12:01:54.392Z,1016.35
2023-02-27T12:02:54.387Z,1016.33
2023-02-27T12:03:54.343Z,1016.28
2023-02-27T12:04:54.288Z,1016.25
2023-02-27T12:05:54.259Z,1016.28
2023-02-27T12:06:54.245Z,1016.27